sensor_id;sensor_type;location;lat;lon;timestamp;temperature;humidity
16289;DHT22;26089;43.538;5.250;2023-05-09T00:00:19;17.60;99.90
16289;DHT22;26089;43.538;5.250;2023-05-09T00:02:46;17.60;99.90
16289;DHT22;26089;43.538;5.250;2023-05-09T00:05:14;17.60;99.90
16289;DHT22;26089;43.538;5.250;2023-05-09T00:07:41;17.60;99.90
16289;DHT22;26089;43.538;5.250;2023-05-09T00:10:08;17.60;99.90
16289;DHT22;26089;43.538;5.250;2023-05-09T00:12:35;17.60;99.90
16289;DHT22;26089;43.538;5.250;2023-05-09T00:15:04;17.60;99.90
16289;DHT22;26089;43.538;5.250;2023-05-09T00:17:32;17.50;99.90
16289;DHT22;26089;43.538;5.250;2023-05-09T00:20:01;17.50;99.90
16289;DHT22;26089;43.538;5.250;2023-05-09T00:22:29;17.50;99.90
16289;DHT22;26089;43.538;5.250;2023-05-09T00:24:56;17.40;99.90
16289;DHT22;26089;43.538;5.250;2023-05-09T00:27:23;17.40;99.90
16289;DHT22;26089;43.538;5.250;2023-05-09T00:29:50;17.40;99.90
16289;DHT22;26089;43.538;5.250;2023-05-09T00:32:18;17.30;99.90
16289;DHT22;26089;43.538;5.250;2023-05-09T00:34:45;17.30;99.90
16289;DHT22;26089;43.538;5.250;2023-05-09T00:37:12;17.20;99.90
16289;DHT22;26089;43.538;5.250;2023-05-09T00:39:39;17.20;99.90
16289;DHT22;26089;43.538;5.250;2023-05-09T00:42:06;17.30;99.90
16289;DHT22;26089;43.538;5.250;2023-05-09T00:44:33;17.30;99.90
16289;DHT22;26089;43.538;5.250;2023-05-09T00:47:00;17.30;99.90
16289;DHT22;26089;43.538;5.250;2023-05-09T00:49:29;17.20;99.90
16289;DHT22;26089;43.538;5.250;2023-05-09T00:51:56;17.20;99.90
16289;DHT22;26089;43.538;5.250;2023-05-09T00:54:23;17.20;99.90
16289;DHT22;26089;43.538;5.250;2023-05-09T00:56:51;17.20;99.90
16289;DHT22;26089;43.538;5.250;2023-05-09T00:59:18;17.10;99.90
16289;DHT22;26089;43.538;5.250;2023-05-09T01:01:45;17.10;99.90
16289;DHT22;26089;43.538;5.250;2023-05-09T01:04:13;17.10;99.90
16289;DHT22;26089;43.538;5.250;2023-05-09T01:06:49;17.00;99.90
16289;DHT22;26089;43.538;5.250;2023-05-09T01:09:23;17.00;99.90
16289;DHT22;26089;43.538;5.250;2023-05-09T01:11:57;17.00;99.90
16289;DHT22;26089;43.538;5.250;2023-05-09T01:14:35;17.00;99.90
16289;DHT22;26089;43.538;5.250;2023-05-09T01:17:09;17.00;99.90
16289;DHT22;26089;43.538;5.250;2023-05-09T01:19:56;16.90;99.90
16289;DHT22;26089;43.538;5.250;2023-05-09T01:22:29;16.90;99.90
16289;DHT22;26089;43.538;5.250;2023-05-09T01:25:19;16.90;99.90
16289;DHT22;26089;43.538;5.250;2023-05-09T01:27:59;16.90;99.90
16289;DHT22;26089;43.538;5.250;2023-05-09T01:30:33;16.90;99.90
16289;DHT22;26089;43.538;5.250;2023-05-09T01:33:06;16.80;99.90
16289;DHT22;26089;43.538;5.250;2023-05-09T01:35:36;16.70;99.90
16289;DHT22;26089;43.538;5.250;2023-05-09T01:38:09;16.80;99.90
16289;DHT22;26089;43.538;5.250;2023-05-09T01:40:39;16.80;99.90
16289;DHT22;26089;43.538;5.250;2023-05-09T01:43:09;16.80;99.90
16289;DHT22;26089;43.538;5.250;2023-05-09T01:45:39;16.70;99.90
16289;DHT22;26089;43.538;5.250;2023-05-09T01:48:07;16.70;99.90
16289;DHT22;26089;43.538;5.250;2023-05-09T01:50:36;16.70;99.90
16289;DHT22;26089;43.538;5.250;2023-05-09T01:53:06;16.60;99.90
16289;DHT22;26089;43.538;5.250;2023-05-09T01:55:34;16.60;99.90
16289;DHT22;26089;43.538;5.250;2023-05-09T01:58:03;16.60;99.90
16289;DHT22;26089;43.538;5.250;2023-05-09T02:00:31;16.60;99.90
16289;DHT22;26089;43.538;5.250;2023-05-09T02:03:01;16.50;99.90
16289;DHT22;26089;43.538;5.250;2023-05-09T02:05:30;16.50;99.90
16289;DHT22;26089;43.538;5.250;2023-05-09T02:07:58;16.50;99.90
16289;DHT22;26089;43.538;5.250;2023-05-09T02:10:26;16.40;99.90
16289;DHT22;26089;43.538;5.250;2023-05-09T02:12:54;16.30;99.90
16289;DHT22;26089;43.538;5.250;2023-05-09T02:15:21;16.30;99.90
16289;DHT22;26089;43.538;5.250;2023-05-09T02:17:48;16.30;99.90
16289;DHT22;26089;43.538;5.250;2023-05-09T02:20:17;16.30;99.90
16289;DHT22;26089;43.538;5.250;2023-05-09T02:22:44;16.30;99.90
16289;DHT22;26089;43.538;5.250;2023-05-09T02:25:12;16.20;99.90
16289;DHT22;26089;43.538;5.250;2023-05-09T02:27:42;16.20;99.90
16289;DHT22;26089;43.538;5.250;2023-05-09T02:30:14;16.20;99.90
16289;DHT22;26089;43.538;5.250;2023-05-09T02:32:44;16.20;99.90
16289;DHT22;26089;43.538;5.250;2023-05-09T02:35:14;16.20;99.90
16289;DHT22;26089;43.538;5.250;2023-05-09T02:37:43;16.20;99.90
16289;DHT22;26089;43.538;5.250;2023-05-09T02:40:11;16.10;99.90
16289;DHT22;26089;43.538;5.250;2023-05-09T02:42:39;16.10;99.90
16289;DHT22;26089;43.538;5.250;2023-05-09T02:45:07;16.10;99.90
16289;DHT22;26089;43.538;5.250;2023-05-09T02:47:35;16.10;99.90
16289;DHT22;26089;43.538;5.250;2023-05-09T02:50:03;16.10;99.90
16289;DHT22;26089;43.538;5.250;2023-05-09T02:52:30;16.20;99.90
16289;DHT22;26089;43.538;5.250;2023-05-09T02:54:59;16.20;99.90
16289;DHT22;26089;43.538;5.250;2023-05-09T02:57:26;16.30;99.90
16289;DHT22;26089;43.538;5.250;2023-05-09T02:59:53;16.30;99.90
16289;DHT22;26089;43.538;5.250;2023-05-09T03:02:19;16.30;99.90
16289;DHT22;26089;43.538;5.250;2023-05-09T03:04:48;16.30;99.90
16289;DHT22;26089;43.538;5.250;2023-05-09T03:07:15;16.30;99.90
16289;DHT22;26089;43.538;5.250;2023-05-09T03:09:42;16.30;99.90
16289;DHT22;26089;43.538;5.250;2023-05-09T03:12:10;16.20;99.90
16289;DHT22;26089;43.538;5.250;2023-05-09T03:14:37;16.30;99.90
16289;DHT22;26089;43.538;5.250;2023-05-09T03:17:04;16.20;99.90
16289;DHT22;26089;43.538;5.250;2023-05-09T03:19:31;16.30;99.90
16289;DHT22;26089;43.538;5.250;2023-05-09T03:21:58;16.30;99.90
16289;DHT22;26089;43.538;5.250;2023-05-09T03:24:26;16.30;99.90
16289;DHT22;26089;43.538;5.250;2023-05-09T03:26:53;16.40;99.90
16289;DHT22;26089;43.538;5.250;2023-05-09T03:29:21;16.30;99.90
16289;DHT22;26089;43.538;5.250;2023-05-09T03:31:48;16.30;99.90
16289;DHT22;26089;43.538;5.250;2023-05-09T03:34:15;16.30;99.90
16289;DHT22;26089;43.538;5.250;2023-05-09T03:36:42;16.30;99.90
16289;DHT22;26089;43.538;5.250;2023-05-09T03:39:09;16.30;99.90
16289;DHT22;26089;43.538;5.250;2023-05-09T03:41:36;16.30;99.90
16289;DHT22;26089;43.538;5.250;2023-05-09T03:44:04;16.30;99.90
16289;DHT22;26089;43.538;5.250;2023-05-09T03:46:32;16.20;99.90
16289;DHT22;26089;43.538;5.250;2023-05-09T03:48:59;16.20;99.90
16289;DHT22;26089;43.538;5.250;2023-05-09T03:51:26;16.20;99.90
16289;DHT22;26089;43.538;5.250;2023-05-09T03:53:53;16.20;99.90
16289;DHT22;26089;43.538;5.250;2023-05-09T03:56:20;16.10;99.90
16289;DHT22;26089;43.538;5.250;2023-05-09T03:58:48;16.10;99.90
16289;DHT22;26089;43.538;5.250;2023-05-09T04:01:15;16.00;99.90
16289;DHT22;26089;43.538;5.250;2023-05-09T04:03:43;16.00;99.90
16289;DHT22;26089;43.538;5.250;2023-05-09T04:06:11;16.10;99.90
16289;DHT22;26089;43.538;5.250;2023-05-09T04:08:38;16.10;99.90
16289;DHT22;26089;43.538;5.250;2023-05-09T04:11:05;16.00;99.90
16289;DHT22;26089;43.538;5.250;2023-05-09T04:13:33;16.10;99.90
16289;DHT22;26089;43.538;5.250;2023-05-09T04:16:00;16.10;99.90
16289;DHT22;26089;43.538;5.250;2023-05-09T04:18:27;16.10;99.90
16289;DHT22;26089;43.538;5.250;2023-05-09T04:20:56;16.10;99.90
16289;DHT22;26089;43.538;5.250;2023-05-09T04:23:23;16.00;99.90
16289;DHT22;26089;43.538;5.250;2023-05-09T04:25:50;16.10;99.90
16289;DHT22;26089;43.538;5.250;2023-05-09T04:28:18;16.10;99.90
16289;DHT22;26089;43.538;5.250;2023-05-09T04:30:46;16.10;99.90
16289;DHT22;26089;43.538;5.250;2023-05-09T04:33:12;16.10;99.90
16289;DHT22;26089;43.538;5.250;2023-05-09T04:35:40;16.20;99.90
16289;DHT22;26089;43.538;5.250;2023-05-09T04:38:08;16.20;99.90
16289;DHT22;26089;43.538;5.250;2023-05-09T04:40:36;16.20;99.90
16289;DHT22;26089;43.538;5.250;2023-05-09T04:43:03;16.20;99.90
16289;DHT22;26089;43.538;5.250;2023-05-09T04:45:30;16.20;99.90
16289;DHT22;26089;43.538;5.250;2023-05-09T04:47:57;16.20;99.90
16289;DHT22;26089;43.538;5.250;2023-05-09T04:50:24;16.30;99.90
16289;DHT22;26089;43.538;5.250;2023-05-09T04:52:51;16.30;99.90
16289;DHT22;26089;43.538;5.250;2023-05-09T04:55:19;16.30;99.90
16289;DHT22;26089;43.538;5.250;2023-05-09T04:57:46;16.40;99.90
16289;DHT22;26089;43.538;5.250;2023-05-09T05:00:14;16.50;99.90
16289;DHT22;26089;43.538;5.250;2023-05-09T05:02:42;16.50;99.90
16289;DHT22;26089;43.538;5.250;2023-05-09T05:05:09;16.50;99.90
16289;DHT22;26089;43.538;5.250;2023-05-09T05:07:36;16.50;99.90
16289;DHT22;26089;43.538;5.250;2023-05-09T05:10:04;16.60;99.90
16289;DHT22;26089;43.538;5.250;2023-05-09T05:12:33;16.60;99.90
16289;DHT22;26089;43.538;5.250;2023-05-09T05:15:00;16.60;99.90
16289;DHT22;26089;43.538;5.250;2023-05-09T05:17:27;16.70;99.90
16289;DHT22;26089;43.538;5.250;2023-05-09T05:19:54;16.70;99.90
16289;DHT22;26089;43.538;5.250;2023-05-09T05:22:21;16.70;99.90
16289;DHT22;26089;43.538;5.250;2023-05-09T05:24:49;16.80;99.90
16289;DHT22;26089;43.538;5.250;2023-05-09T05:27:15;16.80;99.90
16289;DHT22;26089;43.538;5.250;2023-05-09T05:29:44;16.90;99.90
16289;DHT22;26089;43.538;5.250;2023-05-09T05:32:11;16.90;99.90
16289;DHT22;26089;43.538;5.250;2023-05-09T05:34:38;16.90;99.90
16289;DHT22;26089;43.538;5.250;2023-05-09T05:37:05;16.90;99.90
16289;DHT22;26089;43.538;5.250;2023-05-09T05:39:32;16.90;99.90
16289;DHT22;26089;43.538;5.250;2023-05-09T05:41:59;16.90;99.90
16289;DHT22;26089;43.538;5.250;2023-05-09T05:44:26;17.00;99.90
16289;DHT22;26089;43.538;5.250;2023-05-09T05:46:54;17.00;99.90
16289;DHT22;26089;43.538;5.250;2023-05-09T05:49:21;17.00;99.90
16289;DHT22;26089;43.538;5.250;2023-05-09T05:51:49;17.00;99.90
16289;DHT22;26089;43.538;5.250;2023-05-09T05:54:16;17.10;99.90
16289;DHT22;26089;43.538;5.250;2023-05-09T05:56:43;17.10;99.90
16289;DHT22;26089;43.538;5.250;2023-05-09T05:59:10;17.10;99.90
16289;DHT22;26089;43.538;5.250;2023-05-09T06:01:37;17.10;99.90
16289;DHT22;26089;43.538;5.250;2023-05-09T06:04:05;17.20;99.90
16289;DHT22;26089;43.538;5.250;2023-05-09T06:06:32;17.20;99.90
16289;DHT22;26089;43.538;5.250;2023-05-09T06:08:59;17.20;99.90
16289;DHT22;26089;43.538;5.250;2023-05-09T06:11:26;17.30;99.90
16289;DHT22;26089;43.538;5.250;2023-05-09T06:13:53;17.50;99.90
16289;DHT22;26089;43.538;5.250;2023-05-09T06:16:20;17.50;99.90
16289;DHT22;26089;43.538;5.250;2023-05-09T06:18:47;17.50;99.90
16289;DHT22;26089;43.538;5.250;2023-05-09T06:21:16;17.60;99.90
16289;DHT22;26089;43.538;5.250;2023-05-09T06:23:43;17.70;99.90
16289;DHT22;26089;43.538;5.250;2023-05-09T06:26:10;17.90;99.90
16289;DHT22;26089;43.538;5.250;2023-05-09T06:28:39;18.00;99.90
16289;DHT22;26089;43.538;5.250;2023-05-09T06:31:06;18.20;99.90
16289;DHT22;26089;43.538;5.250;2023-05-09T06:33:33;18.30;99.90
16289;DHT22;26089;43.538;5.250;2023-05-09T06:36:00;18.50;99.90
16289;DHT22;26089;43.538;5.250;2023-05-09T06:38:29;18.70;99.90
16289;DHT22;26089;43.538;5.250;2023-05-09T06:40:56;18.90;99.90
16289;DHT22;26089;43.538;5.250;2023-05-09T06:43:22;19.10;99.90
16289;DHT22;26089;43.538;5.250;2023-05-09T06:45:50;19.30;99.90
16289;DHT22;26089;43.538;5.250;2023-05-09T06:48:16;19.50;99.90
16289;DHT22;26089;43.538;5.250;2023-05-09T06:50:44;19.60;99.90
16289;DHT22;26089;43.538;5.250;2023-05-09T06:53:11;19.80;99.90
16289;DHT22;26089;43.538;5.250;2023-05-09T06:55:39;20.10;99.90
16289;DHT22;26089;43.538;5.250;2023-05-09T06:58:06;20.50;99.90
16289;DHT22;26089;43.538;5.250;2023-05-09T07:00:33;20.90;99.90
16289;DHT22;26089;43.538;5.250;2023-05-09T07:03:00;21.20;99.90
16289;DHT22;26089;43.538;5.250;2023-05-09T07:05:27;21.40;99.90
16289;DHT22;26089;43.538;5.250;2023-05-09T07:07:54;21.40;99.90
16289;DHT22;26089;43.538;5.250;2023-05-09T07:10:21;21.10;99.90
16289;DHT22;26089;43.538;5.250;2023-05-09T07:12:50;20.90;99.90
16289;DHT22;26089;43.538;5.250;2023-05-09T07:15:16;20.90;99.90
16289;DHT22;26089;43.538;5.250;2023-05-09T07:17:43;21.20;99.90
16289;DHT22;26089;43.538;5.250;2023-05-09T07:20:11;21.30;99.90
16289;DHT22;26089;43.538;5.250;2023-05-09T07:22:38;21.40;99.90
16289;DHT22;26089;43.538;5.250;2023-05-09T07:25:07;21.60;99.90
16289;DHT22;26089;43.538;5.250;2023-05-09T07:27:34;22.00;99.90
16289;DHT22;26089;43.538;5.250;2023-05-09T07:30:03;22.40;99.90
16289;DHT22;26089;43.538;5.250;2023-05-09T07:32:30;22.90;99.90
16289;DHT22;26089;43.538;5.250;2023-05-09T07:34:57;23.10;99.90
16289;DHT22;26089;43.538;5.250;2023-05-09T07:37:24;23.30;99.90
16289;DHT22;26089;43.538;5.250;2023-05-09T07:39:51;23.80;99.90
16289;DHT22;26089;43.538;5.250;2023-05-09T07:42:18;24.20;99.90
16289;DHT22;26089;43.538;5.250;2023-05-09T07:44:45;24.40;99.90
16289;DHT22;26089;43.538;5.250;2023-05-09T07:47:13;24.40;99.90
16289;DHT22;26089;43.538;5.250;2023-05-09T07:49:40;24.30;99.90
16289;DHT22;26089;43.538;5.250;2023-05-09T07:52:08;24.30;99.90
16289;DHT22;26089;43.538;5.250;2023-05-09T07:54:35;24.20;99.90
16289;DHT22;26089;43.538;5.250;2023-05-09T07:57:02;24.10;99.90
16289;DHT22;26089;43.538;5.250;2023-05-09T07:59:29;23.90;99.90
16289;DHT22;26089;43.538;5.250;2023-05-09T08:01:56;24.10;99.90
16289;DHT22;26089;43.538;5.250;2023-05-09T08:04:24;24.30;99.90
16289;DHT22;26089;43.538;5.250;2023-05-09T08:06:51;24.10;99.90
16289;DHT22;26089;43.538;5.250;2023-05-09T08:09:18;24.20;99.90
16289;DHT22;26089;43.538;5.250;2023-05-09T08:11:46;24.20;99.90
16289;DHT22;26089;43.538;5.250;2023-05-09T08:14:13;24.40;99.90
16289;DHT22;26089;43.538;5.250;2023-05-09T08:16:40;24.50;99.90
16289;DHT22;26089;43.538;5.250;2023-05-09T08:19:08;24.60;99.90
16289;DHT22;26089;43.538;5.250;2023-05-09T08:21:36;24.90;99.90
16289;DHT22;26089;43.538;5.250;2023-05-09T08:24:03;24.90;99.90
16289;DHT22;26089;43.538;5.250;2023-05-09T08:26:32;25.10;99.90
16289;DHT22;26089;43.538;5.250;2023-05-09T08:28:59;25.10;99.90
16289;DHT22;26089;43.538;5.250;2023-05-09T08:31:26;25.30;99.90
16289;DHT22;26089;43.538;5.250;2023-05-09T08:33:53;25.10;99.90
16289;DHT22;26089;43.538;5.250;2023-05-09T08:36:20;25.10;99.90
16289;DHT22;26089;43.538;5.250;2023-05-09T08:38:49;25.00;99.90
16289;DHT22;26089;43.538;5.250;2023-05-09T08:41:16;24.80;99.90
16289;DHT22;26089;43.538;5.250;2023-05-09T08:43:43;24.80;99.90
16289;DHT22;26089;43.538;5.250;2023-05-09T08:46:11;24.50;99.90
16289;DHT22;26089;43.538;5.250;2023-05-09T08:48:39;24.60;99.90
16289;DHT22;26089;43.538;5.250;2023-05-09T08:51:06;24.70;99.90
16289;DHT22;26089;43.538;5.250;2023-05-09T08:53:35;24.70;99.90
16289;DHT22;26089;43.538;5.250;2023-05-09T08:56:05;24.70;99.90
16289;DHT22;26089;43.538;5.250;2023-05-09T08:58:33;24.80;99.90
16289;DHT22;26089;43.538;5.250;2023-05-09T09:01:01;24.80;99.90
16289;DHT22;26089;43.538;5.250;2023-05-09T09:03:31;25.20;99.90
16289;DHT22;26089;43.538;5.250;2023-05-09T09:05:59;25.30;99.90
16289;DHT22;26089;43.538;5.250;2023-05-09T09:08:26;25.00;99.90
16289;DHT22;26089;43.538;5.250;2023-05-09T09:10:54;25.30;99.90
16289;DHT22;26089;43.538;5.250;2023-05-09T09:13:22;25.30;99.90
16289;DHT22;26089;43.538;5.250;2023-05-09T09:15:52;25.40;99.90
16289;DHT22;26089;43.538;5.250;2023-05-09T09:18:21;25.60;99.90
16289;DHT22;26089;43.538;5.250;2023-05-09T09:20:52;25.70;99.90
16289;DHT22;26089;43.538;5.250;2023-05-09T09:23:24;25.80;99.90
16289;DHT22;26089;43.538;5.250;2023-05-09T09:25:56;25.60;99.90
16289;DHT22;26089;43.538;5.250;2023-05-09T09:28:25;26.00;99.90
16289;DHT22;26089;43.538;5.250;2023-05-09T09:30:52;26.20;99.90
16289;DHT22;26089;43.538;5.250;2023-05-09T09:33:20;26.00;99.90
16289;DHT22;26089;43.538;5.250;2023-05-09T09:35:47;26.00;99.90
16289;DHT22;26089;43.538;5.250;2023-05-09T09:38:16;26.10;99.90
16289;DHT22;26089;43.538;5.250;2023-05-09T09:40:53;26.00;99.90
16289;DHT22;26089;43.538;5.250;2023-05-09T09:43:27;25.50;99.90
16289;DHT22;26089;43.538;5.250;2023-05-09T09:45:55;25.30;99.90
16289;DHT22;26089;43.538;5.250;2023-05-09T09:48:25;25.30;99.90
16289;DHT22;26089;43.538;5.250;2023-05-09T09:50:54;25.10;99.90
16289;DHT22;26089;43.538;5.250;2023-05-09T09:53:21;24.80;99.90
16289;DHT22;26089;43.538;5.250;2023-05-09T09:55:49;24.70;99.90
16289;DHT22;26089;43.538;5.250;2023-05-09T09:58:17;24.90;99.90
16289;DHT22;26089;43.538;5.250;2023-05-09T10:01:03;24.90;99.90
16289;DHT22;26089;43.538;5.250;2023-05-09T10:03:34;25.10;99.90
16289;DHT22;26089;43.538;5.250;2023-05-09T10:06:01;25.30;99.90
16289;DHT22;26089;43.538;5.250;2023-05-09T10:08:28;25.70;99.90
16289;DHT22;26089;43.538;5.250;2023-05-09T10:10:56;25.60;99.90
16289;DHT22;26089;43.538;5.250;2023-05-09T10:13:25;25.70;99.90
16289;DHT22;26089;43.538;5.250;2023-05-09T10:15:55;25.50;99.90
16289;DHT22;26089;43.538;5.250;2023-05-09T10:18:26;25.40;99.90
16289;DHT22;26089;43.538;5.250;2023-05-09T10:20:56;25.40;99.90
16289;DHT22;26089;43.538;5.250;2023-05-09T10:23:26;25.50;99.90
16289;DHT22;26089;43.538;5.250;2023-05-09T10:25:59;25.90;99.90
16289;DHT22;26089;43.538;5.250;2023-05-09T10:28:31;26.40;99.90
16289;DHT22;26089;43.538;5.250;2023-05-09T10:31:11;26.90;99.90
16289;DHT22;26089;43.538;5.250;2023-05-09T10:33:41;27.20;99.90
16289;DHT22;26089;43.538;5.250;2023-05-09T10:36:09;27.60;99.90
16289;DHT22;26089;43.538;5.250;2023-05-09T10:38:37;28.20;99.90
16289;DHT22;26089;43.538;5.250;2023-05-09T10:41:05;28.80;99.90
16289;DHT22;26089;43.538;5.250;2023-05-09T10:43:33;29.10;99.90
16289;DHT22;26089;43.538;5.250;2023-05-09T10:46:02;29.20;99.90
16289;DHT22;26089;43.538;5.250;2023-05-09T10:48:31;29.10;99.90
16289;DHT22;26089;43.538;5.250;2023-05-09T10:50:59;29.30;99.90
16289;DHT22;26089;43.538;5.250;2023-05-09T10:53:39;28.90;99.90
16289;DHT22;26089;43.538;5.250;2023-05-09T10:56:07;28.80;99.90
16289;DHT22;26089;43.538;5.250;2023-05-09T10:58:34;28.70;99.90
16289;DHT22;26089;43.538;5.250;2023-05-09T11:01:05;28.70;99.90
16289;DHT22;26089;43.538;5.250;2023-05-09T11:03:53;28.30;99.90
16289;DHT22;26089;43.538;5.250;2023-05-09T11:06:41;27.90;99.90
16289;DHT22;26089;43.538;5.250;2023-05-09T11:09:25;27.20;99.90
16289;DHT22;26089;43.538;5.250;2023-05-09T11:11:54;26.80;99.90
16289;DHT22;26089;43.538;5.250;2023-05-09T11:14:29;26.80;99.90
16289;DHT22;26089;43.538;5.250;2023-05-09T11:16:58;26.60;99.90
16289;DHT22;26089;43.538;5.250;2023-05-09T11:19:36;25.90;99.90
16289;DHT22;26089;43.538;5.250;2023-05-09T11:22:11;25.90;99.90
16289;DHT22;26089;43.538;5.250;2023-05-09T11:24:39;26.10;99.90
16289;DHT22;26089;43.538;5.250;2023-05-09T11:27:18;26.20;99.90
16289;DHT22;26089;43.538;5.250;2023-05-09T11:29:49;26.50;99.90
16289;DHT22;26089;43.538;5.250;2023-05-09T11:32:19;25.80;99.90
16289;DHT22;26089;43.538;5.250;2023-05-09T11:34:46;25.80;99.90
16289;DHT22;26089;43.538;5.250;2023-05-09T11:37:15;26.10;99.90
16289;DHT22;26089;43.538;5.250;2023-05-09T11:39:57;26.20;99.90
16289;DHT22;26089;43.538;5.250;2023-05-09T11:42:26;25.60;99.90
16289;DHT22;26089;43.538;5.250;2023-05-09T11:44:54;25.20;99.90
16289;DHT22;26089;43.538;5.250;2023-05-09T11:47:23;25.30;99.90
16289;DHT22;26089;43.538;5.250;2023-05-09T11:49:50;24.90;99.90
16289;DHT22;26089;43.538;5.250;2023-05-09T11:52:18;24.60;99.90
16289;DHT22;26089;43.538;5.250;2023-05-09T11:54:45;24.20;99.90
16289;DHT22;26089;43.538;5.250;2023-05-09T11:57:12;24.30;99.90
16289;DHT22;26089;43.538;5.250;2023-05-09T11:59:42;24.30;99.90
16289;DHT22;26089;43.538;5.250;2023-05-09T12:02:10;24.40;99.90
16289;DHT22;26089;43.538;5.250;2023-05-09T12:04:39;24.30;99.90
16289;DHT22;26089;43.538;5.250;2023-05-09T12:07:06;23.90;99.90
16289;DHT22;26089;43.538;5.250;2023-05-09T12:09:34;23.70;99.90
16289;DHT22;26089;43.538;5.250;2023-05-09T12:12:08;23.70;99.90
16289;DHT22;26089;43.538;5.250;2023-05-09T12:14:37;23.90;99.90
16289;DHT22;26089;43.538;5.250;2023-05-09T12:17:04;23.90;99.90
16289;DHT22;26089;43.538;5.250;2023-05-09T12:19:31;23.60;99.90
16289;DHT22;26089;43.538;5.250;2023-05-09T12:22:01;23.80;99.90
16289;DHT22;26089;43.538;5.250;2023-05-09T12:24:29;23.80;99.90
16289;DHT22;26089;43.538;5.250;2023-05-09T12:26:57;24.00;99.90
16289;DHT22;26089;43.538;5.250;2023-05-09T12:29:24;24.10;99.90
16289;DHT22;26089;43.538;5.250;2023-05-09T12:31:52;24.10;99.90
16289;DHT22;26089;43.538;5.250;2023-05-09T12:34:20;24.00;99.90
16289;DHT22;26089;43.538;5.250;2023-05-09T12:36:47;24.10;99.90
16289;DHT22;26089;43.538;5.250;2023-05-09T12:39:17;24.10;99.90
16289;DHT22;26089;43.538;5.250;2023-05-09T12:41:46;24.10;99.90
16289;DHT22;26089;43.538;5.250;2023-05-09T12:44:19;24.20;99.90
16289;DHT22;26089;43.538;5.250;2023-05-09T12:46:56;24.00;99.90
16289;DHT22;26089;43.538;5.250;2023-05-09T12:49:23;23.90;99.90
16289;DHT22;26089;43.538;5.250;2023-05-09T12:51:52;24.10;99.90
16289;DHT22;26089;43.538;5.250;2023-05-09T12:54:21;24.20;99.90
16289;DHT22;26089;43.538;5.250;2023-05-09T12:56:49;24.30;99.90
16289;DHT22;26089;43.538;5.250;2023-05-09T12:59:20;24.30;99.90
16289;DHT22;26089;43.538;5.250;2023-05-09T13:01:51;24.10;99.90
16289;DHT22;26089;43.538;5.250;2023-05-09T13:04:20;23.80;99.90
16289;DHT22;26089;43.538;5.250;2023-05-09T13:06:48;23.90;99.90
16289;DHT22;26089;43.538;5.250;2023-05-09T13:09:17;23.70;99.90
16289;DHT22;26089;43.538;5.250;2023-05-09T13:11:45;23.60;99.90
16289;DHT22;26089;43.538;5.250;2023-05-09T13:14:13;23.60;99.90
16289;DHT22;26089;43.538;5.250;2023-05-09T13:16:40;23.60;99.90
16289;DHT22;26089;43.538;5.250;2023-05-09T13:19:07;23.60;99.90
16289;DHT22;26089;43.538;5.250;2023-05-09T13:21:34;23.40;99.90
16289;DHT22;26089;43.538;5.250;2023-05-09T13:24:02;23.40;99.90
16289;DHT22;26089;43.538;5.250;2023-05-09T13:26:29;23.30;99.90
16289;DHT22;26089;43.538;5.250;2023-05-09T13:28:57;23.20;99.90
16289;DHT22;26089;43.538;5.250;2023-05-09T13:31:24;23.20;99.90
16289;DHT22;26089;43.538;5.250;2023-05-09T13:33:51;23.10;99.90
16289;DHT22;26089;43.538;5.250;2023-05-09T13:36:18;23.20;99.90
16289;DHT22;26089;43.538;5.250;2023-05-09T13:38:45;22.80;99.90
16289;DHT22;26089;43.538;5.250;2023-05-09T13:41:12;22.70;99.90
16289;DHT22;26089;43.538;5.250;2023-05-09T13:43:44;22.50;99.90
16289;DHT22;26089;43.538;5.250;2023-05-09T13:46:13;22.40;99.90
16289;DHT22;26089;43.538;5.250;2023-05-09T13:48:40;22.50;99.90
16289;DHT22;26089;43.538;5.250;2023-05-09T13:51:07;22.40;99.90
16289;DHT22;26089;43.538;5.250;2023-05-09T13:53:34;22.10;99.90
16289;DHT22;26089;43.538;5.250;2023-05-09T13:56:01;21.90;99.90
16289;DHT22;26089;43.538;5.250;2023-05-09T13:58:28;21.90;99.90
16289;DHT22;26089;43.538;5.250;2023-05-09T14:00:55;21.80;99.90
16289;DHT22;26089;43.538;5.250;2023-05-09T14:03:24;21.80;99.90
16289;DHT22;26089;43.538;5.250;2023-05-09T14:05:51;21.70;99.90
16289;DHT22;26089;43.538;5.250;2023-05-09T14:08:18;21.60;99.90
16289;DHT22;26089;43.538;5.250;2023-05-09T14:10:45;21.50;99.90
16289;DHT22;26089;43.538;5.250;2023-05-09T14:13:12;21.40;99.90
16289;DHT22;26089;43.538;5.250;2023-05-09T14:15:40;21.30;99.90
16289;DHT22;26089;43.538;5.250;2023-05-09T14:18:07;21.20;99.90
16289;DHT22;26089;43.538;5.250;2023-05-09T14:20:35;21.10;99.90
16289;DHT22;26089;43.538;5.250;2023-05-09T14:23:04;21.10;99.90
16289;DHT22;26089;43.538;5.250;2023-05-09T14:25:32;21.10;99.90
16289;DHT22;26089;43.538;5.250;2023-05-09T14:27:59;21.30;99.90
16289;DHT22;26089;43.538;5.250;2023-05-09T14:30:26;21.30;99.90
16289;DHT22;26089;43.538;5.250;2023-05-09T14:32:53;21.10;99.90
16289;DHT22;26089;43.538;5.250;2023-05-09T14:35:20;21.20;99.90
16289;DHT22;26089;43.538;5.250;2023-05-09T14:37:48;21.30;99.90
16289;DHT22;26089;43.538;5.250;2023-05-09T14:40:15;21.40;99.90
16289;DHT22;26089;43.538;5.250;2023-05-09T14:42:42;21.30;99.90
16289;DHT22;26089;43.538;5.250;2023-05-09T14:45:11;21.10;99.90
16289;DHT22;26089;43.538;5.250;2023-05-09T14:47:40;21.00;99.90
16289;DHT22;26089;43.538;5.250;2023-05-09T14:50:07;21.00;99.90
16289;DHT22;26089;43.538;5.250;2023-05-09T14:52:40;21.00;99.90
16289;DHT22;26089;43.538;5.250;2023-05-09T14:55:09;20.90;99.90
16289;DHT22;26089;43.538;5.250;2023-05-09T14:57:36;20.90;99.90
16289;DHT22;26089;43.538;5.250;2023-05-09T15:00:04;20.80;99.90
16289;DHT22;26089;43.538;5.250;2023-05-09T15:02:31;20.80;99.90
16289;DHT22;26089;43.538;5.250;2023-05-09T15:04:58;20.70;99.90
16289;DHT22;26089;43.538;5.250;2023-05-09T15:07:25;20.70;99.90
16289;DHT22;26089;43.538;5.250;2023-05-09T15:09:52;20.60;99.90
16289;DHT22;26089;43.538;5.250;2023-05-09T15:12:21;20.60;99.90
16289;DHT22;26089;43.538;5.250;2023-05-09T15:14:48;20.50;99.90
16289;DHT22;26089;43.538;5.250;2023-05-09T15:17:18;20.40;99.90
16289;DHT22;26089;43.538;5.250;2023-05-09T15:19:45;20.30;99.90
16289;DHT22;26089;43.538;5.250;2023-05-09T15:22:12;20.30;99.90
16289;DHT22;26089;43.538;5.250;2023-05-09T15:24:39;20.20;99.90
16289;DHT22;26089;43.538;5.250;2023-05-09T15:27:08;20.30;99.90
16289;DHT22;26089;43.538;5.250;2023-05-09T15:29:37;20.20;99.90
16289;DHT22;26089;43.538;5.250;2023-05-09T15:32:05;20.20;99.90
16289;DHT22;26089;43.538;5.250;2023-05-09T15:34:32;20.10;99.90
16289;DHT22;26089;43.538;5.250;2023-05-09T15:36:59;20.00;99.90